createdAt,value
2018-10-21T00:01:04.002Z,10.16
2018-10-21T00:03:33.213Z,10.19
2018-10-21T00:06:02.700Z,10.18
2018-10-21T00:08:31.904Z,10.19
2018-10-21T00:11:01.300Z,10.14
2018-10-21T00:13:30.711Z,10.20
2018-10-21T00:15:59.922Z,10.22
2018-10-21T00:18:29.558Z,10.22
2018-10-21T00:20:58.896Z,10.23
2018-10-21T00:23:29.081Z,10.26
2018-10-21T00:25:58.339Z,10.35
2018-10-21T00:28:27.680Z,10.41
2018-10-21T00:30:56.891Z,10.41
2018-10-21T00:33:26.236Z,10.44
2018-10-21T00:35:55.457Z,10.53
2018-10-21T00:38:25.559Z,10.60
2018-10-21T00:40:54.786Z,10.61
2018-10-21T00:43:24.224Z,10.60
2018-10-21T00:45:53.519Z,10.65
2018-10-21T00:48:22.783Z,10.73
2018-10-21T00:50:52.007Z,10.71
2018-10-21T00:53:21.314Z,10.74
2018-10-21T00:55:50.673Z,10.70
2018-10-21T00:58:19.897Z,10.46
2018-10-21T01:00:49.171Z,10.43
2018-10-21T01:03:18.577Z,10.37
2018-10-21T01:05:48.001Z,10.56
2018-10-21T01:08:17.258Z,10.58
2018-10-21T01:10:46.501Z,10.60
2018-10-21T01:13:15.759Z,10.63
2018-10-21T01:15:45.062Z,10.76
2018-10-21T01:18:14.337Z,10.76
2018-10-21T01:20:43.529Z,10.72
2018-10-21T01:23:12.782Z,10.72
2018-10-21T01:25:42.114Z,10.68
2018-10-21T01:28:13.403Z,10.63
2018-10-21T01:30:42.704Z,10.75
2018-10-21T01:33:11.942Z,10.79
2018-10-21T01:35:41.124Z,10.81
2018-10-21T01:38:10.516Z,10.86
2018-10-21T01:40:44.698Z,10.86
2018-10-21T01:43:17.518Z,10.89
2018-10-21T01:45:46.866Z,10.87
2018-10-21T01:48:17.190Z,10.85
2018-10-21T01:50:46.541Z,10.83
2018-10-21T01:53:16.729Z,10.83
2018-10-21T01:55:46.063Z,10.81
2018-10-21T01:58:16.411Z,10.88
2018-10-21T02:00:45.793Z,10.92
2018-10-21T02:03:15.144Z,10.86
2018-10-21T02:05:46.349Z,10.87
2018-10-21T02:08:15.657Z,10.89
2018-10-21T02:10:44.882Z,10.87
2018-10-21T02:13:14.234Z,10.89
2018-10-21T02:15:43.561Z,10.93
2018-10-21T02:18:12.888Z,10.87
2018-10-21T02:20:46.006Z,10.79
2018-10-21T02:23:15.332Z,10.67
2018-10-21T02:25:44.629Z,10.69
2018-10-21T02:28:13.882Z,10.69
2018-10-21T02:30:43.143Z,10.61
2018-10-21T02:33:12.721Z,10.56
2018-10-21T02:35:42.012Z,10.56
2018-10-21T02:38:11.288Z,10.61
2018-10-21T02:41:48.815Z,10.56
2018-10-21T02:44:20.254Z,10.52
2018-10-21T02:46:50.729Z,10.49
2018-10-21T02:49:20.686Z,10.52
2018-10-21T02:51:55.685Z,10.44
2018-10-21T02:54:29.049Z,10.40
2018-10-21T02:56:58.535Z,10.44
2018-10-21T02:59:28.119Z,10.41
2018-10-21T03:01:57.478Z,10.45
2018-10-21T03:04:26.692Z,10.46
2018-10-21T03:06:56.007Z,10.50
2018-10-21T03:09:24.950Z,10.58
2018-10-21T03:11:54.262Z,10.62
2018-10-21T03:14:23.521Z,10.63
2018-10-21T03:16:52.762Z,10.57
2018-10-21T03:19:22.270Z,10.53
2018-10-21T03:21:51.551Z,10.58
2018-10-21T03:24:20.763Z,10.57
2018-10-21T03:26:50.061Z,10.55
2018-10-21T03:29:19.287Z,10.55
2018-10-21T03:31:48.563Z,10.49
2018-10-21T03:34:17.759Z,10.45
2018-10-21T03:36:46.963Z,10.43
2018-10-21T03:39:16.258Z,10.44
2018-10-21T03:41:45.491Z,10.41
2018-10-21T03:44:14.743Z,10.62
2018-10-21T03:46:43.998Z,10.54
2018-10-21T03:49:14.252Z,10.56
2018-10-21T03:51:43.499Z,10.62
2018-10-21T03:54:12.789Z,10.70
2018-10-21T03:56:41.997Z,10.68
2018-10-21T03:59:11.270Z,10.74
2018-10-21T04:01:40.506Z,10.63
2018-10-21T04:04:15.163Z,10.72
2018-10-21T04:06:44.637Z,10.74
2018-10-21T04:09:14.070Z,10.92
2018-10-21T04:11:43.307Z,10.97
2018-10-21T04:14:12.641Z,10.88
2018-10-21T04:16:41.871Z,10.88
2018-10-21T04:19:11.203Z,10.93
2018-10-21T04:21:40.602Z,10.94
2018-10-21T04:24:09.850Z,11.00
2018-10-21T04:26:39.068Z,11.00
2018-10-21T04:29:08.438Z,11.03
2018-10-21T04:31:37.668Z,10.93
2018-10-21T04:34:07.004Z,11.02
2018-10-21T04:36:36.239Z,11.14
2018-10-21T04:39:26.133Z,11.15
2018-10-21T04:41:55.389Z,11.06
2018-10-21T04:44:24.613Z,10.96
2018-10-21T04:46:53.957Z,10.84
2018-10-21T04:49:23.186Z,10.82
2018-10-21T04:51:52.448Z,10.78
2018-10-21T04:54:21.686Z,10.75
2018-10-21T04:56:51.093Z,10.66
2018-10-21T04:59:20.314Z,10.63
2018-10-21T05:01:49.547Z,10.68
2018-10-21T05:04:18.914Z,10.80
2018-10-21T05:06:48.165Z,10.76
2018-10-21T05:09:17.451Z,10.69
2018-10-21T05:11:46.815Z,10.73
2018-10-21T05:14:16.066Z,10.74
2018-10-21T05:16:45.349Z,10.63
2018-10-21T05:19:14.675Z,10.56
2018-10-21T05:21:43.951Z,10.60
2018-10-21T05:24:13.498Z,10.56
2018-10-21T05:26:42.761Z,10.56
2018-10-21T05:29:11.990Z,10.54
2018-10-21T05:31:41.277Z,10.41
2018-10-21T05:34:10.711Z,10.42
2018-10-21T05:36:39.878Z,10.40
2018-10-21T05:39:11.041Z,10.35
2018-10-21T05:41:40.659Z,10.36
2018-10-21T05:44:09.904Z,10.32
2018-10-21T05:46:44.382Z,10.30
2018-10-21T05:49:13.753Z,10.33
2018-10-21T05:51:45.287Z,10.28
2018-10-21T05:54:15.980Z,10.28
2018-10-21T05:56:47.589Z,10.37
2018-10-21T05:59:17.735Z,10.43
2018-10-21T06:01:47.881Z,10.49
2018-10-21T06:04:17.882Z,10.54
2018-10-21T06:06:48.129Z,10.67
2018-10-21T06:09:18.679Z,10.69
2018-10-21T06:11:47.951Z,10.73
2018-10-21T06:14:19.375Z,10.77
2018-10-21T06:17:55.628Z,10.76
2018-10-21T06:20:32.075Z,10.82
2018-10-21T06:23:03.817Z,10.90
2018-10-21T06:25:35.041Z,10.94
2018-10-21T06:28:06.069Z,10.96
2018-10-21T06:30:36.912Z,11.04
2018-10-21T06:33:08.390Z,11.02
2018-10-21T06:35:39.238Z,11.13
2018-10-21T06:38:09.884Z,11.17
2018-10-21T06:40:40.914Z,11.20
2018-10-21T06:43:12.460Z,11.23
2018-10-21T06:45:44.210Z,11.27
2018-10-21T06:48:14.966Z,11.26
2018-10-21T06:50:46.518Z,11.35
2018-10-21T06:53:18.066Z,11.28
2018-10-21T06:55:50.668Z,11.41
2018-10-21T06:58:22.203Z,11.45
2018-10-21T07:00:53.109Z,11.48
2018-10-21T07:03:23.696Z,11.57
2018-10-21T07:06:12.215Z,11.60
2018-10-21T07:08:43.199Z,11.46
2018-10-21T07:11:14.872Z,11.63
2018-10-21T07:13:45.434Z,11.68
2018-10-21T07:16:16.893Z,11.62
2018-10-21T07:18:48.620Z,11.47
2018-10-21T07:21:19.878Z,11.71
2018-10-21T07:23:50.377Z,11.89
2018-10-21T07:26:22.018Z,11.97
2018-10-21T07:28:52.814Z,12.06
2018-10-21T07:31:23.854Z,12.12
2018-10-21T07:33:54.563Z,12.19
2018-10-21T07:36:25.858Z,12.23
2018-10-21T07:38:56.496Z,12.32
2018-10-21T07:41:29.723Z,12.42
2018-10-21T07:44:00.866Z,12.32
2018-10-21T07:46:31.606Z,12.46
2018-10-21T07:49:03.086Z,12.46
2018-10-21T07:51:33.764Z,12.16
2018-10-21T07:54:03.063Z,12.33
2018-10-21T07:56:32.297Z,12.47
2018-10-21T07:59:01.740Z,12.59
2018-10-21T08:01:31.040Z,12.66
2018-10-21T08:04:00.350Z,12.70
2018-10-21T08:06:40.949Z,12.77
2018-10-21T08:09:11.708Z,12.67
2018-10-21T08:11:40.998Z,12.70
2018-10-21T08:14:10.351Z,12.69
2018-10-21T08:16:39.564Z,12.60
2018-10-21T08:19:08.795Z,12.63
2018-10-21T08:21:38.085Z,12.66
2018-10-21T08:24:07.372Z,12.83
2018-10-21T08:26:36.735Z,12.85
2018-10-21T08:29:06.184Z,13.00
2018-10-21T08:31:35.398Z,12.97
2018-10-21T08:34:04.831Z,13.11
2018-10-21T08:36:34.178Z,13.19
2018-10-21T08:39:03.769Z,13.24
2018-10-21T08:41:33.066Z,13.34
2018-10-21T08:44:02.548Z,13.32
2018-10-21T08:46:31.861Z,13.34
2018-10-21T08:49:01.022Z,13.40
2018-10-21T08:51:30.410Z,13.59
2018-10-21T08:53:59.626Z,13.63
2018-10-21T08:56:28.853Z,13.40
2018-10-21T08:58:58.740Z,13.61
2018-10-21T09:01:28.023Z,13.68
2018-10-21T09:03:57.296Z,13.76
2018-10-21T09:06:26.558Z,13.89
2018-10-21T09:08:55.805Z,14.00
2018-10-21T09:11:25.091Z,14.05
2018-10-21T09:13:57.039Z,14.16
2018-10-21T09:16:26.365Z,14.22
2018-10-21T09:18:55.641Z,14.40
2018-10-21T09:21:24.903Z,14.47
2018-10-21T09:23:54.261Z,14.64
2018-10-21T09:26:23.445Z,14.69
2018-10-21T09:28:53.110Z,14.72
2018-10-21T09:31:22.311Z,14.74
2018-10-21T09:33:51.543Z,14.67
2018-10-21T09:36:21.234Z,14.56
2018-10-21T09:38:50.475Z,14.59
2018-10-21T09:41:19.702Z,14.67
2018-10-21T09:43:49.610Z,14.57
2018-10-21T09:46:19.008Z,14.76
2018-10-21T09:48:48.249Z,14.86
2018-10-21T09:51:17.753Z,15.07
2018-10-21T09:53:47.251Z,15.09
2018-10-21T09:56:16.535Z,15.00
2018-10-21T09:58:46.041Z,14.98
2018-10-21T10:01:20.554Z,15.16
2018-10-21T10:03:49.919Z,15.06
2018-10-21T10:06:19.097Z,15.12
2018-10-21T10:08:48.291Z,15.09
2018-10-21T10:11:17.709Z,15.13
2018-10-21T10:13:47.130Z,15.13
2018-10-21T10:16:17.358Z,15.03
2018-10-21T10:18:46.698Z,15.05
2018-10-21T10:21:15.919Z,14.98
2018-10-21T10:23:45.156Z,15.06
2018-10-21T10:26:14.539Z,15.12
2018-10-21T10:28:43.716Z,15.07
2018-10-21T10:31:13.844Z,15.10
2018-10-21T10:33:42.998Z,15.18
2018-10-21T10:36:12.333Z,15.10
2018-10-21T10:38:42.058Z,15.21
2018-10-21T10:41:11.434Z,15.25
2018-10-21T10:43:40.673Z,15.21
2018-10-21T10:46:10.008Z,15.42
2018-10-21T10:48:39.358Z,15.41
2018-10-21T10:51:09.101Z,15.53
2018-10-21T10:53:38.739Z,15.63
2018-10-21T10:56:08.854Z,15.63
2018-10-21T10:58:38.049Z,15.77
2018-10-21T11:01:07.332Z,15.93
2018-10-21T11:03:36.485Z,16.18
2018-10-21T11:06:05.823Z,16.18
2018-10-21T11:08:35.090Z,16.30
2018-10-21T11:11:04.358Z,16.36
2018-10-21T11:13:33.541Z,16.22
2018-10-21T11:16:02.859Z,16.32
2018-10-21T11:18:33.525Z,16.31
2018-10-21T11:21:02.753Z,16.39
2018-10-21T11:23:32.049Z,16.51
2018-10-21T11:26:01.742Z,16.48
2018-10-21T11:28:30.968Z,16.73
2018-10-21T11:31:00.224Z,17.02
2018-10-21T11:33:29.422Z,17.04
2018-10-21T11:35:58.614Z,17.11
2018-10-21T11:38:28.030Z,17.08
2018-10-21T11:40:57.253Z,17.38
2018-10-21T11:43:26.541Z,17.63
2018-10-21T11:45:56.584Z,17.52
2018-10-21T11:48:25.771Z,17.53
2018-10-21T11:50:55.006Z,17.68
2018-10-21T11:53:25.175Z,17.88
2018-10-21T11:55:54.453Z,18.01
2018-10-21T11:58:23.663Z,17.92
2018-10-21T12:00:52.927Z,17.82
2018-10-21T12:03:22.134Z,17.87
2018-10-21T12:05:51.385Z,17.89
2018-10-21T12:08:20.646Z,17.81
2018-10-21T12:10:49.840Z,17.98
2018-10-21T12:13:19.092Z,18.04
2018-10-21T12:15:48.310Z,18.15
2018-10-21T12:18:17.589Z,17.97
2018-10-21T12:20:46.891Z,18.01
2018-10-21T12:23:16.164Z,17.83
2018-10-21T12:25:45.419Z,17.79
2018-10-21T12:28:14.726Z,17.75
2018-10-21T12:30:44.043Z,17.68
2018-10-21T12:33:13.229Z,17.60
2018-10-21T12:35:42.431Z,17.59
2018-10-21T12:38:11.725Z,17.38
2018-10-21T12:40:41.035Z,17.17
2018-10-21T12:43:10.279Z,16.97
2018-10-21T12:45:39.458Z,16.97
2018-10-21T12:48:09.166Z,16.85
2018-10-21T12:50:38.371Z,16.82
2018-10-21T12:53:07.648Z,16.93
2018-10-21T12:55:42.166Z,16.99
2018-10-21T12:58:11.567Z,16.90
2018-10-21T13:00:40.703Z,16.94
2018-10-21T13:03:10.044Z,16.93
2018-10-21T13:05:39.989Z,16.83
2018-10-21T13:08:09.220Z,16.69
2018-10-21T13:10:38.424Z,16.68
2018-10-21T13:13:07.710Z,16.74
2018-10-21T13:15:36.926Z,16.79
2018-10-21T13:18:06.790Z,16.76
2018-10-21T13:20:36.238Z,16.78
2018-10-21T13:23:05.887Z,16.84
2018-10-21T13:25:35.174Z,16.92
2018-10-21T13:28:04.597Z,16.91
2018-10-21T13:30:33.801Z,16.98
2018-10-21T13:33:03.524Z,16.88
2018-10-21T13:35:32.803Z,16.75
2018-10-21T13:38:02.002Z,16.62
2018-10-21T13:40:31.305Z,16.60
2018-10-21T13:43:00.527Z,16.47
2018-10-21T13:45:29.737Z,16.45
2018-10-21T13:47:58.998Z,16.36
2018-10-21T13:50:28.325Z,16.21
2018-10-21T13:52:57.624Z,16.16
2018-10-21T13:55:26.857Z,16.17
2018-10-21T13:57:56.270Z,16.19
2018-10-21T14:00:25.653Z,16.19
2018-10-21T14:02:54.944Z,16.27
2018-10-21T14:05:24.218Z,16.34
2018-10-21T14:07:53.474Z,16.30
2018-10-21T14:10:22.851Z,16.32
2018-10-21T14:12:53.121Z,16.27
2018-10-21T14:15:22.389Z,16.16
2018-10-21T14:17:51.545Z,16.28
2018-10-21T14:20:21.135Z,16.31
2018-10-21T14:22:50.517Z,16.41
2018-10-21T14:25:19.782Z,16.44
2018-10-21T14:27:49.069Z,16.42
2018-10-21T14:30:18.337Z,16.50
2018-10-21T14:32:47.621Z,16.50
2018-10-21T14:35:17.042Z,16.58
2018-10-21T14:37:46.322Z,16.58
2018-10-21T14:40:15.610Z,16.59
2018-10-21T14:42:45.040Z,16.59
2018-10-21T14:45:14.288Z,16.55
2018-10-21T14:47:43.451Z,16.57
2018-10-21T14:50:13.153Z,16.60
2018-10-21T14:52:42.476Z,16.56
2018-10-21T14:55:11.914Z,16.52
2018-10-21T14:57:41.294Z,16.44
2018-10-21T15:00:12.274Z,16.46
2018-10-21T15:02:43.213Z,16.33
2018-10-21T15:05:13.450Z,16.36
2018-10-21T15:07:44.722Z,16.28
2018-10-21T15:10:13.998Z,16.22
2018-10-21T15:12:43.345Z,16.19
2018-10-21T15:15:12.691Z,16.19
2018-10-21T15:17:41.997Z,16.14
2018-10-21T15:20:12.875Z,16.06
2018-10-21T15:22:43.205Z,16.18
2018-10-21T15:25:12.988Z,16.20
2018-10-21T15:27:42.547Z,16.21
2018-10-21T15:30:13.259Z,16.14
2018-10-21T15:32:42.632Z,16.16
2018-10-21T15:35:11.889Z,16.19
2018-10-21T15:37:41.183Z,16.16
2018-10-21T15:40:11.335Z,16.11
2018-10-21T15:42:40.621Z,16.09
2018-10-21T15:45:12.025Z,16.05
2018-10-21T15:47:41.311Z,16.06
2018-10-21T15:50:10.610Z,16.13
2018-10-21T15:52:39.934Z,16.08
2018-10-21T15:55:09.699Z,15.83
2018-10-21T15:57:39.008Z,15.99
2018-10-21T16:00:10.179Z,16.09
2018-10-21T16:02:39.594Z,16.05
2018-10-21T16:05:09.292Z,16.08
2018-10-21T16:07:38.600Z,16.08
2018-10-21T16:10:08.617Z,16.11
2018-10-21T16:12:38.487Z,16.06
2018-10-21T16:15:12.394Z,15.98
2018-10-21T16:17:41.794Z,15.99
2018-10-21T16:20:11.065Z,15.99
2018-10-21T16:22:41.423Z,15.89
2018-10-21T16:25:13.197Z,15.95
2018-10-21T16:27:43.169Z,15.94
2018-10-21T16:30:15.495Z,15.94
2018-10-21T16:32:45.494Z,15.84
2018-10-21T16:35:14.742Z,15.84
2018-10-21T16:37:44.001Z,15.86
2018-10-21T16:40:14.647Z,15.83
2018-10-21T16:42:44.721Z,15.80
2018-10-21T16:45:15.072Z,15.77
2018-10-21T16:47:44.308Z,15.69
2018-10-21T16:50:15.394Z,15.65
2018-10-21T16:52:45.722Z,15.62
2018-10-21T16:55:15.565Z,15.63
2018-10-21T16:57:44.999Z,15.57
2018-10-21T17:00:15.635Z,15.56
2018-10-21T17:04:15.035Z,15.50
2018-10-21T17:06:44.431Z,15.46
2018-10-21T17:09:14.732Z,15.38
2018-10-21T17:11:44.782Z,15.38
2018-10-21T17:14:14.018Z,15.39
2018-10-21T17:16:44.271Z,15.42
2018-10-21T17:19:14.129Z,15.40
2018-10-21T17:21:43.303Z,15.34
2018-10-21T17:24:12.527Z,15.18
2018-10-21T17:26:42.227Z,15.18
2018-10-21T17:29:11.473Z,15.08
2018-10-21T17:31:40.674Z,14.96
2018-10-21T17:34:10.088Z,14.99
2018-10-21T17:36:39.293Z,14.91
2018-10-21T17:39:11.536Z,14.90
2018-10-21T17:41:40.886Z,14.87
2018-10-21T17:44:10.250Z,14.88
2018-10-21T17:46:39.832Z,14.83
2018-10-21T17:49:09.130Z,14.78
2018-10-21T17:51:38.471Z,14.77
2018-10-21T17:54:08.690Z,14.71
2018-10-21T17:56:43.429Z,14.66
2018-10-21T17:59:13.201Z,14.64
2018-10-21T18:01:42.446Z,14.57
2018-10-21T18:04:11.779Z,14.47
2018-10-21T18:06:42.876Z,14.50
2018-10-21T18:09:13.062Z,14.34
2018-10-21T18:11:42.374Z,14.39
2018-10-21T18:14:13.508Z,14.44
2018-10-21T18:16:42.819Z,14.39
2018-10-21T18:19:12.178Z,14.38
2018-10-21T18:21:41.498Z,14.31
2018-10-21T18:25:13.679Z,14.26
2018-10-21T18:27:42.886Z,14.12
2018-10-21T18:30:12.930Z,14.12
2018-10-21T18:32:42.910Z,14.04
2018-10-21T18:35:13.798Z,14.02
2018-10-21T18:37:43.114Z,14.00
2018-10-21T18:40:13.133Z,13.85
2018-10-21T18:42:42.634Z,13.92
2018-10-21T18:45:13.569Z,13.88
2018-10-21T18:47:43.488Z,13.88
2018-10-21T18:50:14.975Z,13.90
2018-10-21T18:52:44.717Z,13.86
2018-10-21T18:55:14.325Z,13.76
2018-10-21T18:57:43.517Z,13.78
2018-10-21T19:00:15.082Z,13.77
2018-10-21T19:02:44.627Z,13.75
2018-10-21T19:05:14.585Z,13.82
2018-10-21T19:07:43.944Z,13.81
2018-10-21T19:10:14.985Z,13.85
2018-10-21T19:12:44.379Z,13.81
2018-10-21T19:15:14.155Z,13.77
2018-10-21T19:17:43.650Z,13.84
2018-10-21T19:20:16.900Z,13.83
2018-10-21T19:22:46.402Z,13.79
2018-10-21T19:25:16.731Z,13.73
2018-10-21T19:27:46.544Z,13.65
2018-10-21T19:30:16.365Z,13.72
2018-10-21T19:32:45.751Z,13.62
2018-10-21T19:35:16.055Z,13.69
2018-10-21T19:37:46.009Z,13.76
2018-10-21T19:40:16.208Z,13.77
2018-10-21T19:42:45.589Z,13.84
2018-10-21T19:45:15.718Z,13.82
2018-10-21T19:47:45.155Z,13.94
2018-10-21T19:50:15.678Z,13.98
2018-10-21T19:52:45.409Z,14.06
2018-10-21T19:55:15.027Z,14.02
2018-10-21T19:57:44.174Z,13.97
2018-10-21T20:00:15.070Z,14.01
2018-10-21T20:02:44.677Z,13.99
2018-10-21T20:05:13.966Z,13.77
2018-10-21T20:07:43.399Z,13.89
2018-10-21T20:10:13.869Z,13.83
2018-10-21T20:12:43.175Z,13.94
2018-10-21T20:15:13.227Z,13.95
2018-10-21T20:20:22.605Z,14.08
2018-10-21T20:22:51.821Z,14.06
2018-10-21T20:25:21.167Z,14.09
2018-10-21T20:27:50.531Z,14.07
2018-10-21T20:30:19.823Z,14.11
2018-10-21T20:32:49.419Z,14.08
2018-10-21T20:35:18.583Z,14.03
2018-10-21T20:37:47.947Z,14.06
2018-10-21T20:40:18.525Z,14.00
2018-10-21T20:42:48.108Z,13.96
2018-10-21T20:45:18.526Z,13.94
2018-10-21T20:47:48.903Z,14.00
2018-10-21T20:50:18.234Z,14.00
2018-10-21T20:52:47.591Z,14.04
2018-10-21T20:55:16.948Z,13.96
2018-10-21T20:57:46.281Z,14.05
2018-10-21T21:00:15.683Z,14.02
2018-10-21T21:02:44.919Z,14.11
2018-10-21T21:05:14.217Z,14.10
2018-10-21T21:07:43.491Z,14.06
2018-10-21T21:10:12.798Z,14.07
2018-10-21T21:12:42.024Z,14.16
2018-10-21T21:15:11.297Z,14.18
2018-10-21T21:17:40.644Z,14.20
2018-10-21T21:20:10.758Z,14.24
2018-10-21T21:22:40.098Z,14.22
2018-10-21T21:25:09.422Z,14.15
2018-10-21T21:27:38.673Z,14.12
2018-10-21T21:30:08.675Z,14.12
2018-10-21T21:32:38.013Z,14.04
2018-10-21T21:35:07.777Z,13.94
2018-10-21T21:37:37.405Z,13.99
2018-10-21T21:40:08.431Z,13.95
2018-10-21T21:42:37.932Z,14.01
2018-10-21T21:45:07.859Z,13.98
2018-10-21T21:47:37.582Z,13.98
2018-10-21T21:50:07.382Z,13.96
2018-10-21T21:52:36.770Z,13.77
2018-10-21T21:55:06.443Z,13.82
2018-10-21T21:57:35.709Z,13.80
2018-10-21T22:00:07.609Z,13.66
2018-10-21T22:02:36.834Z,13.58
2018-10-21T22:05:07.688Z,13.64
2018-10-21T22:07:38.346Z,13.64
2018-10-21T22:10:08.298Z,13.67
2018-10-21T22:12:37.570Z,13.71
2018-10-21T22:15:06.821Z,13.73
2018-10-21T22:17:36.454Z,13.70
2018-10-21T22:20:06.046Z,13.82
2018-10-21T22:22:35.330Z,13.85
2018-10-21T22:25:04.927Z,13.75
2018-10-21T22:27:34.293Z,13.85
2018-10-21T22:30:03.629Z,13.94
2018-10-21T22:32:32.851Z,13.96
2018-10-21T22:35:03.457Z,14.03
2018-10-21T22:37:32.641Z,14.02
2018-10-21T22:40:01.934Z,13.98
2018-10-21T22:42:31.326Z,14.05
2018-10-21T22:45:00.517Z,13.99
2018-10-21T22:47:29.713Z,14.11
2018-10-21T22:49:59.114Z,14.11
2018-10-21T22:52:28.315Z,14.12
2018-10-21T22:54:57.513Z,14.12
2018-10-21T22:57:26.831Z,14.09
2018-10-21T22:59:56.112Z,14.15
2018-10-21T23:02:25.276Z,14.14
2018-10-21T23:04:54.631Z,14.04
2018-10-21T23:07:23.883Z,14.09
2018-10-21T23:09:53.169Z,14.06
2018-10-21T23:12:22.657Z,14.08
2018-10-21T23:14:51.969Z,14.12
2018-10-21T23:17:21.176Z,14.04
2018-10-21T23:19:50.833Z,13.98
2018-10-21T23:22:20.141Z,14.03
2018-10-21T23:24:49.224Z,13.94
2018-10-21T23:27:19.381Z,14.06
2018-10-21T23:29:48.591Z,13.99
2018-10-21T23:32:17.777Z,14.06
2018-10-21T23:34:47.025Z,14.06
2018-10-21T23:37:16.209Z,13.99
2018-10-21T23:39:45.525Z,13.99
2018-10-21T23:42:14.801Z,13.93
2018-10-21T23:44:44.199Z,13.90
2018-10-21T23:47:13.498Z,13.92
2018-10-21T23:49:42.793Z,13.82
2018-10-21T23:52:12.178Z,13.68
2018-10-21T23:54:41.445Z,13.58
2018-10-21T23:57:10.666Z,13.46
2018-10-21T23:59:39.857Z,13.37
